PAL180 RPLL-RPMD
Flight info
| Callsign | PAL180 |
|---|---|
| Flight time | 1h 21m |
| Altitude | 39000 |
| Route | IPATA2R IPATA B462 MASBA W9A BN W9 RIMAR RIMAR2R |
| Aircraft | A346/H-SDE2E3FGHIJ3J4J5M1RWXY/LB1D1 |
Departure
| Time | 2026-05-07 23:29 |
|---|---|
| Airport | Ninoy Aquino International Airport (RPLL) |
Arrival
| Time | 2026-05-08 00:50 |
|---|---|
| Airport | Francisco Bangoy International Airport (RPMD) |
| Time | Latitude | Longitude | Altitude | Speed | Heading |
|---|---|---|---|---|---|
| 2026-05-07 23:09 | 14.51178 | 121.01289 | 91 ft | 0 kts | 217° |
| 2026-05-07 23:16 | 14.51186 | 121.01295 | 91 ft | 2 kts | 217° |
| 2026-05-07 23:16 | 14.51198 | 121.01305 | 91 ft | 2 kts | 217° |
| 2026-05-07 23:17 | 14.51206 | 121.01310 | 91 ft | 1 kts | 217° |
| 2026-05-07 23:17 | 14.51219 | 121.01317 | 91 ft | 2 kts | 179° |
| 2026-05-07 23:17 | 14.51234 | 121.01313 | 91 ft | 2 kts | 145° |
| 2026-05-07 23:17 | 14.51239 | 121.01308 | 91 ft | 1 kts | 133° |
| 2026-05-07 23:18 | 14.51242 | 121.01305 | 91 ft | 0 kts | 134° |
| 2026-05-07 23:18 | 14.51241 | 121.01305 | 91 ft | 0 kts | 134° |
| 2026-05-07 23:20 | 14.51237 | 121.01310 | 91 ft | 2 kts | 135° |
| 2026-05-07 23:20 | 14.51214 | 121.01333 | 91 ft | 7 kts | 135° |
| 2026-05-07 23:20 | 14.51174 | 121.01373 | 91 ft | 8 kts | 135° |
| 2026-05-07 23:21 | 14.51131 | 121.01417 | 91 ft | 9 kts | 135° |
| 2026-05-07 23:21 | 14.51085 | 121.01466 | 91 ft | 9 kts | 133° |
| 2026-05-07 23:21 | 14.51038 | 121.01517 | 91 ft | 9 kts | 134° |
| 2026-05-07 23:21 | 14.50988 | 121.01569 | 91 ft | 10 kts | 135° |
| 2026-05-07 23:22 | 14.50937 | 121.01620 | 91 ft | 8 kts | 135° |
| 2026-05-07 23:22 | 14.50890 | 121.01655 | 91 ft | 5 kts | 167° |
| 2026-05-07 23:22 | 14.50851 | 121.01635 | 91 ft | 7 kts | 229° |
| 2026-05-07 23:22 | 14.50820 | 121.01588 | 91 ft | 8 kts | 239° |
| 2026-05-07 23:23 | 14.50789 | 121.01534 | 91 ft | 9 kts | 239° |
| 2026-05-07 23:23 | 14.50755 | 121.01475 | 91 ft | 9 kts | 240° |
| 2026-05-07 23:23 | 14.50720 | 121.01411 | 91 ft | 10 kts | 240° |
| 2026-05-07 23:23 | 14.50683 | 121.01344 | 91 ft | 10 kts | 240° |
| 2026-05-07 23:24 | 14.50645 | 121.01276 | 91 ft | 11 kts | 240° |
| 2026-05-07 23:24 | 14.50605 | 121.01203 | 91 ft | 11 kts | 240° |
| 2026-05-07 23:24 | 14.50564 | 121.01131 | 91 ft | 11 kts | 240° |
| 2026-05-07 23:24 | 14.50523 | 121.01057 | 91 ft | 11 kts | 240° |
| 2026-05-07 23:25 | 14.50482 | 121.00984 | 91 ft | 11 kts | 240° |
| 2026-05-07 23:25 | 14.50442 | 121.00910 | 91 ft | 12 kts | 241° |
| 2026-05-07 23:25 | 14.50397 | 121.00829 | 91 ft | 14 kts | 240° |
| 2026-05-07 23:25 | 14.50343 | 121.00732 | 91 ft | 16 kts | 240° |
| 2026-05-07 23:26 | 14.50282 | 121.00622 | 91 ft | 18 kts | 239° |
| 2026-05-07 23:26 | 14.50215 | 121.00504 | 91 ft | 19 kts | 240° |
| 2026-05-07 23:26 | 14.50145 | 121.00375 | 91 ft | 21 kts | 240° |
| 2026-05-07 23:26 | 14.50080 | 121.00259 | 91 ft | 16 kts | 240° |
| 2026-05-07 23:27 | 14.49965 | 121.00052 | 91 ft | 10 kts | 240° |
| 2026-05-07 23:27 | 14.49932 | 120.99994 | 91 ft | 9 kts | 237° |
| 2026-05-07 23:27 | 14.49876 | 120.99973 | 91 ft | 9 kts | 164° |
| 2026-05-07 23:28 | 14.49812 | 121.00016 | 91 ft | 8 kts | 117° |
| 2026-05-07 23:28 | 14.49823 | 121.00077 | 91 ft | 10 kts | 64° |
| 2026-05-07 23:28 | 14.49926 | 121.00269 | 91 ft | 69 kts | 59° |
| 2026-05-07 23:28 | 14.50319 | 121.00978 | 92 ft | 153 kts | 60° |
| 2026-05-07 23:29 | 14.50929 | 121.02062 | 596 ft | 179 kts | 60° |
| 2026-05-07 23:29 | 14.51523 | 121.03124 | 1599 ft | 174 kts | 62° |
| 2026-05-07 23:29 | 14.52113 | 121.04170 | 2438 ft | 171 kts | 62° |
| 2026-05-07 23:29 | 14.52730 | 121.05274 | 2894 ft | 187 kts | 62° |
| 2026-05-07 23:30 | 14.53411 | 121.06500 | 3336 ft | 204 kts | 62° |
| 2026-05-07 23:30 | 14.53796 | 121.07957 | 3697 ft | 226 kts | 97° |
| 2026-05-07 23:30 | 14.53125 | 121.09443 | 4216 ft | 246 kts | 130° |
| 2026-05-07 23:30 | 14.51875 | 121.10716 | 4836 ft | 261 kts | 134° |
| 2026-05-07 23:31 | 14.50538 | 121.12034 | 5647 ft | 267 kts | 133° |
| 2026-05-07 23:31 | 14.49210 | 121.13378 | 6531 ft | 270 kts | 133° |
| 2026-05-07 23:31 | 14.47888 | 121.14751 | 7366 ft | 274 kts | 132° |
| 2026-05-07 23:31 | 14.46558 | 121.16159 | 8175 ft | 277 kts | 131° |
| 2026-05-07 23:32 | 14.45216 | 121.17596 | 8950 ft | 282 kts | 131° |
| 2026-05-07 23:32 | 14.43857 | 121.19062 | 9707 ft | 286 kts | 131° |
| 2026-05-07 23:32 | 14.42484 | 121.20549 | 10403 ft | 292 kts | 131° |
| 2026-05-07 23:32 | 14.41037 | 121.22122 | 10831 ft | 308 kts | 131° |
| 2026-05-07 23:33 | 14.39508 | 121.23785 | 11173 ft | 326 kts | 131° |
| 2026-05-07 23:33 | 14.37918 | 121.25517 | 11492 ft | 345 kts | 132° |
| 2026-05-07 23:33 | 14.36200 | 121.27385 | 11802 ft | 363 kts | 132° |
| 2026-05-07 23:33 | 14.34427 | 121.29314 | 12140 ft | 379 kts | 132° |
| 2026-05-07 23:34 | 14.32595 | 121.31305 | 12722 ft | 387 kts | 132° |
| 2026-05-07 23:34 | 14.30734 | 121.33328 | 13408 ft | 391 kts | 132° |
| 2026-05-07 23:34 | 14.28853 | 121.35370 | 14078 ft | 395 kts | 132° |
| 2026-05-07 23:34 | 14.26963 | 121.37425 | 14731 ft | 398 kts | 132° |
| 2026-05-07 23:35 | 14.25063 | 121.39488 | 15362 ft | 402 kts | 132° |
| 2026-05-07 23:35 | 14.23128 | 121.41593 | 15983 ft | 406 kts | 132° |
| 2026-05-07 23:35 | 14.21188 | 121.43700 | 16599 ft | 409 kts | 131° |
| 2026-05-07 23:35 | 14.19215 | 121.45844 | 17191 ft | 412 kts | 131° |
| 2026-05-07 23:36 | 14.17239 | 121.47993 | 17771 ft | 416 kts | 132° |
| 2026-05-07 23:36 | 14.15242 | 121.50163 | 18347 ft | 419 kts | 132° |
| 2026-05-07 23:36 | 14.13209 | 121.52372 | 18921 ft | 423 kts | 132° |
| 2026-05-07 23:36 | 14.11197 | 121.54555 | 19469 ft | 426 kts | 132° |
| 2026-05-07 23:37 | 14.09154 | 121.56773 | 20014 ft | 429 kts | 132° |
| 2026-05-07 23:37 | 14.07080 | 121.59023 | 20555 ft | 432 kts | 132° |
| 2026-05-07 23:37 | 14.05001 | 121.61279 | 21085 ft | 435 kts | 132° |
| 2026-05-07 23:37 | 14.02921 | 121.63535 | 21611 ft | 438 kts | 132° |
| 2026-05-07 23:38 | 14.00809 | 121.65828 | 22132 ft | 441 kts | 133° |
| 2026-05-07 23:38 | 13.98712 | 121.68117 | 22639 ft | 444 kts | 133° |
| 2026-05-07 23:38 | 13.96578 | 121.70443 | 23138 ft | 447 kts | 133° |
| 2026-05-07 23:38 | 13.94424 | 121.72783 | 23633 ft | 451 kts | 133° |
| 2026-05-07 23:39 | 13.92254 | 121.75137 | 24126 ft | 454 kts | 133° |
| 2026-05-07 23:39 | 13.90085 | 121.77487 | 24600 ft | 458 kts | 133° |
| 2026-05-07 23:39 | 13.87886 | 121.79856 | 25074 ft | 461 kts | 133° |
| 2026-05-07 23:39 | 13.85703 | 121.82327 | 25548 ft | 464 kts | 130° |
| 2026-05-07 23:40 | 13.83604 | 121.84868 | 26018 ft | 467 kts | 129° |
| 2026-05-07 23:40 | 13.81524 | 121.87405 | 26463 ft | 471 kts | 129° |
| 2026-05-07 23:40 | 13.79405 | 121.89997 | 26907 ft | 474 kts | 129° |
| 2026-05-07 23:40 | 13.77279 | 121.92602 | 27344 ft | 478 kts | 129° |
| 2026-05-07 23:41 | 13.75143 | 121.95219 | 27770 ft | 481 kts | 129° |
| 2026-05-07 23:41 | 13.72988 | 121.97858 | 28196 ft | 484 kts | 129° |
| 2026-05-07 23:41 | 13.70793 | 122.00547 | 28659 ft | 487 kts | 129° |
| 2026-05-07 23:41 | 13.68633 | 122.03194 | 29250 ft | 485 kts | 129° |
| 2026-05-07 23:42 | 13.66463 | 122.05853 | 29886 ft | 483 kts | 130° |
| 2026-05-07 23:42 | 13.64319 | 122.08478 | 30464 ft | 482 kts | 130° |
| 2026-05-07 23:42 | 13.62171 | 122.11108 | 31004 ft | 481 kts | 130° |
| 2026-05-07 23:42 | 13.60011 | 122.13751 | 31530 ft | 481 kts | 131° |
| 2026-05-07 23:43 | 13.57860 | 122.16379 | 32060 ft | 480 kts | 131° |
| 2026-05-07 23:43 | 13.55724 | 122.18989 | 32595 ft | 479 kts | 131° |
| 2026-05-07 23:43 | 13.53577 | 122.21612 | 33199 ft | 478 kts | 131° |
| 2026-05-07 23:43 | 13.51458 | 122.24197 | 33796 ft | 478 kts | 131° |
| 2026-05-07 23:44 | 13.49303 | 122.26825 | 34428 ft | 476 kts | 131° |
| 2026-05-07 23:44 | 13.47156 | 122.29443 | 35047 ft | 474 kts | 131° |
| 2026-05-07 23:44 | 13.45060 | 122.32000 | 35625 ft | 473 kts | 131° |
| 2026-05-07 23:44 | 13.42923 | 122.34605 | 36142 ft | 472 kts | 131° |
| 2026-05-07 23:45 | 13.40817 | 122.37171 | 36583 ft | 472 kts | 131° |
| 2026-05-07 23:45 | 13.38701 | 122.39751 | 36992 ft | 472 kts | 131° |
| 2026-05-07 23:45 | 13.36577 | 122.42339 | 37378 ft | 472 kts | 131° |
| 2026-05-07 23:45 | 13.34445 | 122.44934 | 37688 ft | 474 kts | 131° |
| 2026-05-07 23:46 | 13.32332 | 122.47508 | 37961 ft | 476 kts | 131° |
| 2026-05-07 23:46 | 13.30180 | 122.50127 | 38239 ft | 477 kts | 131° |
| 2026-05-07 23:46 | 13.28063 | 122.52703 | 38516 ft | 478 kts | 131° |
| 2026-05-07 23:46 | 13.25918 | 122.55312 | 38794 ft | 480 kts | 131° |
| 2026-05-07 23:47 | 13.21604 | 122.60558 | 38888 ft | 482 kts | 131° |
| 2026-05-07 23:47 | 13.17269 | 122.65816 | 38890 ft | 482 kts | 131° |
| 2026-05-07 23:48 | 13.12969 | 122.71088 | 38887 ft | 482 kts | 131° |
| 2026-05-07 23:48 | 13.08640 | 122.76374 | 38887 ft | 482 kts | 131° |
| 2026-05-07 23:49 | 13.04310 | 122.81638 | 38886 ft | 482 kts | 131° |
| 2026-05-07 23:49 | 12.99983 | 122.86887 | 38886 ft | 483 kts | 131° |
| 2026-05-07 23:50 | 12.95654 | 122.92136 | 38886 ft | 482 kts | 131° |
| 2026-05-07 23:50 | 12.91282 | 122.97430 | 38885 ft | 482 kts | 131° |
| 2026-05-07 23:51 | 12.86949 | 123.02654 | 38885 ft | 481 kts | 131° |
| 2026-05-07 23:51 | 12.82618 | 123.07861 | 38886 ft | 482 kts | 131° |
| 2026-05-07 23:52 | 12.78252 | 123.13127 | 38887 ft | 482 kts | 131° |
| 2026-05-07 23:52 | 12.73934 | 123.18341 | 38887 ft | 483 kts | 131° |
| 2026-05-07 23:53 | 12.69579 | 123.23601 | 38889 ft | 484 kts | 131° |
| 2026-05-07 23:53 | 12.65204 | 123.28882 | 38895 ft | 484 kts | 131° |
| 2026-05-07 23:54 | 12.60869 | 123.34114 | 38905 ft | 483 kts | 131° |
| 2026-05-07 23:54 | 12.56515 | 123.39365 | 38909 ft | 483 kts | 131° |
| 2026-05-07 23:55 | 12.52181 | 123.44591 | 38909 ft | 483 kts | 131° |
| 2026-05-07 23:55 | 12.47794 | 123.49881 | 38911 ft | 484 kts | 131° |
| 2026-05-07 23:56 | 12.43422 | 123.55128 | 38909 ft | 484 kts | 132° |
| 2026-05-07 23:56 | 12.38693 | 123.60027 | 38909 ft | 483 kts | 139° |
| 2026-05-07 23:57 | 12.33447 | 123.64342 | 38910 ft | 481 kts | 146° |
| 2026-05-07 23:57 | 12.27811 | 123.68008 | 38911 ft | 480 kts | 153° |
| 2026-05-07 23:58 | 12.21940 | 123.71276 | 38910 ft | 479 kts | 153° |
| 2026-05-07 23:58 | 12.16039 | 123.74527 | 38908 ft | 480 kts | 153° |
| 2026-05-07 23:59 | 12.10156 | 123.77768 | 38907 ft | 481 kts | 153° |
| 2026-05-07 23:59 | 12.04204 | 123.81046 | 38906 ft | 481 kts | 153° |
| 2026-05-08 00:00 | 11.98279 | 123.84309 | 38906 ft | 481 kts | 153° |
| 2026-05-08 00:00 | 11.92398 | 123.87547 | 38902 ft | 481 kts | 153° |
| 2026-05-08 00:01 | 11.86423 | 123.90820 | 38903 ft | 481 kts | 153° |
| 2026-05-08 00:01 | 11.80515 | 123.94066 | 38898 ft | 481 kts | 153° |
| 2026-05-08 00:02 | 11.74604 | 123.97317 | 38889 ft | 482 kts | 153° |
| 2026-05-08 00:02 | 11.68668 | 124.00581 | 38888 ft | 482 kts | 153° |
| 2026-05-08 00:03 | 11.62770 | 124.03822 | 38895 ft | 482 kts | 153° |
| 2026-05-08 00:03 | 11.56848 | 124.07072 | 38898 ft | 481 kts | 153° |
| 2026-05-08 00:04 | 11.50887 | 124.10342 | 38893 ft | 482 kts | 153° |
| 2026-05-08 00:04 | 11.44925 | 124.13612 | 38892 ft | 482 kts | 153° |
| 2026-05-08 00:05 | 11.39023 | 124.16846 | 38897 ft | 482 kts | 153° |
| 2026-05-08 00:05 | 11.33042 | 124.20126 | 38892 ft | 482 kts | 153° |
| 2026-05-08 00:06 | 11.27122 | 124.23367 | 38893 ft | 482 kts | 153° |
| 2026-05-08 00:06 | 11.21142 | 124.26642 | 38896 ft | 482 kts | 153° |
| 2026-05-08 00:07 | 11.15215 | 124.29886 | 38898 ft | 483 kts | 153° |
| 2026-05-08 00:07 | 11.09253 | 124.33148 | 38898 ft | 484 kts | 153° |
| 2026-05-08 00:08 | 11.03274 | 124.36391 | 38901 ft | 484 kts | 153° |
| 2026-05-08 00:08 | 10.97296 | 124.39603 | 38905 ft | 484 kts | 153° |
| 2026-05-08 00:09 | 10.91332 | 124.42810 | 38906 ft | 484 kts | 153° |
| 2026-05-08 00:09 | 10.85332 | 124.46032 | 38901 ft | 483 kts | 153° |
| 2026-05-08 00:10 | 10.79389 | 124.49222 | 38884 ft | 483 kts | 153° |
| 2026-05-08 00:10 | 10.73394 | 124.52454 | 38880 ft | 483 kts | 153° |
| 2026-05-08 00:11 | 10.67416 | 124.55692 | 38883 ft | 483 kts | 153° |
| 2026-05-08 00:11 | 10.61480 | 124.58912 | 38879 ft | 483 kts | 153° |
| 2026-05-08 00:12 | 10.55484 | 124.62164 | 38877 ft | 483 kts | 153° |
| 2026-05-08 00:12 | 10.49516 | 124.65403 | 38874 ft | 483 kts | 153° |
| 2026-05-08 00:13 | 10.43577 | 124.68652 | 38875 ft | 482 kts | 153° |
| 2026-05-08 00:13 | 10.37634 | 124.71892 | 38874 ft | 481 kts | 153° |
| 2026-05-08 00:14 | 10.31708 | 124.75109 | 38879 ft | 481 kts | 153° |
| 2026-05-08 00:14 | 10.25739 | 124.78342 | 38882 ft | 481 kts | 153° |
| 2026-05-08 00:15 | 10.19814 | 124.81548 | 38881 ft | 482 kts | 153° |
| 2026-05-08 00:15 | 10.13885 | 124.84755 | 38881 ft | 482 kts | 153° |
| 2026-05-08 00:16 | 10.07967 | 124.87954 | 38883 ft | 481 kts | 153° |
| 2026-05-08 00:16 | 10.01974 | 124.91193 | 38885 ft | 480 kts | 153° |
| 2026-05-08 00:17 | 9.96071 | 124.94383 | 38885 ft | 479 kts | 153° |
| 2026-05-08 00:17 | 9.90175 | 124.97566 | 38885 ft | 480 kts | 153° |
| 2026-05-08 00:18 | 9.84238 | 125.00758 | 38886 ft | 481 kts | 153° |
| 2026-05-08 00:18 | 9.78278 | 125.03968 | 38882 ft | 481 kts | 152° |
| 2026-05-08 00:19 | 9.72385 | 125.07145 | 38884 ft | 482 kts | 152° |
| 2026-05-08 00:19 | 9.66446 | 125.10349 | 38883 ft | 481 kts | 152° |
| 2026-05-08 00:20 | 9.60533 | 125.13538 | 38882 ft | 480 kts | 152° |
| 2026-05-08 00:20 | 9.54562 | 125.16725 | 38883 ft | 481 kts | 153° |
| 2026-05-08 00:21 | 9.48593 | 125.19899 | 38880 ft | 481 kts | 152° |
| 2026-05-08 00:21 | 9.42646 | 125.23068 | 38884 ft | 481 kts | 152° |
| 2026-05-08 00:22 | 9.36708 | 125.26232 | 38488 ft | 481 kts | 152° |
| 2026-05-08 00:22 | 9.33737 | 125.27815 | 38077 ft | 477 kts | 152° |
| 2026-05-08 00:22 | 9.30807 | 125.29375 | 37572 ft | 474 kts | 152° |
| 2026-05-08 00:23 | 9.27885 | 125.30931 | 37019 ft | 472 kts | 152° |
| 2026-05-08 00:23 | 9.24989 | 125.32474 | 36422 ft | 470 kts | 152° |
| 2026-05-08 00:23 | 9.22100 | 125.34013 | 35821 ft | 469 kts | 152° |
| 2026-05-08 00:23 | 9.19207 | 125.35555 | 35232 ft | 468 kts | 152° |
| 2026-05-08 00:24 | 9.16344 | 125.37080 | 34607 ft | 467 kts | 151° |
| 2026-05-08 00:24 | 9.13459 | 125.38616 | 34012 ft | 466 kts | 151° |
| 2026-05-08 00:24 | 9.10618 | 125.40130 | 33456 ft | 466 kts | 151° |
| 2026-05-08 00:24 | 9.07729 | 125.41670 | 32880 ft | 466 kts | 151° |
| 2026-05-08 00:25 | 9.04874 | 125.43189 | 32319 ft | 466 kts | 151° |
| 2026-05-08 00:25 | 9.01982 | 125.44725 | 31753 ft | 467 kts | 152° |
| 2026-05-08 00:25 | 8.99007 | 125.46118 | 31173 ft | 467 kts | 156° |
| 2026-05-08 00:25 | 8.95959 | 125.47262 | 30551 ft | 468 kts | 161° |
| 2026-05-08 00:26 | 8.92823 | 125.48167 | 29909 ft | 469 kts | 165° |
| 2026-05-08 00:26 | 8.89653 | 125.48819 | 29261 ft | 470 kts | 169° |
| 2026-05-08 00:26 | 8.86346 | 125.49240 | 28602 ft | 471 kts | 173° |
| 2026-05-08 00:26 | 8.83035 | 125.49580 | 27952 ft | 471 kts | 173° |
| 2026-05-08 00:27 | 8.79761 | 125.49903 | 27285 ft | 472 kts | 173° |
| 2026-05-08 00:27 | 8.76500 | 125.50224 | 26844 ft | 466 kts | 173° |
| 2026-05-08 00:27 | 8.73285 | 125.50545 | 26431 ft | 461 kts | 173° |
| 2026-05-08 00:27 | 8.70064 | 125.50870 | 25905 ft | 459 kts | 173° |
| 2026-05-08 00:28 | 8.66885 | 125.51192 | 25419 ft | 456 kts | 172° |
| 2026-05-08 00:28 | 8.63759 | 125.51511 | 24898 ft | 454 kts | 172° |
| 2026-05-08 00:28 | 8.60606 | 125.51832 | 24384 ft | 451 kts | 172° |
| 2026-05-08 00:28 | 8.57480 | 125.52150 | 23910 ft | 448 kts | 172° |
| 2026-05-08 00:29 | 8.54398 | 125.52462 | 23456 ft | 444 kts | 172° |
| 2026-05-08 00:29 | 8.51313 | 125.52768 | 23019 ft | 440 kts | 172° |
| 2026-05-08 00:29 | 8.48262 | 125.53045 | 22587 ft | 437 kts | 173° |
| 2026-05-08 00:29 | 8.45252 | 125.53310 | 22175 ft | 433 kts | 172° |
| 2026-05-08 00:30 | 8.42247 | 125.53575 | 21761 ft | 429 kts | 172° |
| 2026-05-08 00:30 | 8.39267 | 125.53839 | 21350 ft | 426 kts | 173° |
| 2026-05-08 00:30 | 8.36297 | 125.54105 | 20934 ft | 423 kts | 172° |
| 2026-05-08 00:30 | 8.33379 | 125.54367 | 20532 ft | 420 kts | 173° |
| 2026-05-08 00:31 | 8.30469 | 125.54629 | 20127 ft | 417 kts | 173° |
| 2026-05-08 00:31 | 8.27568 | 125.54890 | 19714 ft | 415 kts | 173° |
| 2026-05-08 00:31 | 8.24708 | 125.55148 | 19295 ft | 412 kts | 172° |
| 2026-05-08 00:31 | 8.21839 | 125.55405 | 18869 ft | 410 kts | 173° |
| 2026-05-08 00:32 | 8.18998 | 125.55660 | 18441 ft | 408 kts | 172° |
| 2026-05-08 00:32 | 8.16185 | 125.55913 | 18007 ft | 406 kts | 172° |
| 2026-05-08 00:32 | 8.13373 | 125.56168 | 17578 ft | 404 kts | 172° |
| 2026-05-08 00:32 | 8.10547 | 125.56422 | 17158 ft | 402 kts | 172° |
| 2026-05-08 00:33 | 8.07761 | 125.56673 | 16735 ft | 400 kts | 172° |
| 2026-05-08 00:33 | 8.04976 | 125.56924 | 16326 ft | 398 kts | 172° |
| 2026-05-08 00:33 | 8.02229 | 125.57170 | 15919 ft | 395 kts | 172° |
| 2026-05-08 00:33 | 7.99492 | 125.57387 | 15521 ft | 394 kts | 175° |
| 2026-05-08 00:34 | 7.96751 | 125.57293 | 15103 ft | 394 kts | 183° |
| 2026-05-08 00:34 | 7.94062 | 125.56833 | 14699 ft | 393 kts | 191° |
| 2026-05-08 00:34 | 7.91410 | 125.56100 | 14298 ft | 391 kts | 193° |
| 2026-05-08 00:34 | 7.88814 | 125.55329 | 13895 ft | 389 kts | 194° |
| 2026-05-08 00:35 | 7.86196 | 125.54547 | 13477 ft | 387 kts | 194° |
| 2026-05-08 00:35 | 7.83608 | 125.53780 | 13052 ft | 385 kts | 193° |
| 2026-05-08 00:35 | 7.81050 | 125.53026 | 12642 ft | 382 kts | 193° |
| 2026-05-08 00:35 | 7.78498 | 125.52275 | 12232 ft | 379 kts | 193° |
| 2026-05-08 00:36 | 7.75981 | 125.51537 | 11845 ft | 376 kts | 193° |
| 2026-05-08 00:36 | 7.73472 | 125.50800 | 11459 ft | 373 kts | 193° |
| 2026-05-08 00:36 | 7.70968 | 125.50066 | 11059 ft | 370 kts | 193° |
| 2026-05-08 00:36 | 7.68510 | 125.49346 | 10673 ft | 367 kts | 193° |
| 2026-05-08 00:37 | 7.66040 | 125.48622 | 10401 ft | 359 kts | 193° |
| 2026-05-08 00:37 | 7.63685 | 125.47929 | 10341 ft | 344 kts | 193° |
| 2026-05-08 00:37 | 7.61450 | 125.47271 | 10283 ft | 330 kts | 193° |
| 2026-05-08 00:38 | 7.57200 | 125.46023 | 10182 ft | 302 kts | 192° |
| 2026-05-08 00:38 | 7.55221 | 125.45443 | 10141 ft | 290 kts | 192° |
| 2026-05-08 00:38 | 7.53281 | 125.44875 | 10107 ft | 284 kts | 192° |
| 2026-05-08 00:38 | 7.51392 | 125.44326 | 9939 ft | 283 kts | 192° |
| 2026-05-08 00:39 | 7.49485 | 125.43771 | 9641 ft | 282 kts | 192° |
| 2026-05-08 00:39 | 7.47598 | 125.43220 | 9358 ft | 281 kts | 192° |
| 2026-05-08 00:39 | 7.45712 | 125.42670 | 9071 ft | 280 kts | 192° |
| 2026-05-08 00:39 | 7.43838 | 125.42123 | 8795 ft | 279 kts | 192° |
| 2026-05-08 00:40 | 7.41974 | 125.41578 | 8520 ft | 278 kts | 193° |
| 2026-05-08 00:40 | 7.40122 | 125.41036 | 8246 ft | 277 kts | 192° |
| 2026-05-08 00:40 | 7.38272 | 125.40495 | 7973 ft | 276 kts | 192° |
| 2026-05-08 00:40 | 7.36414 | 125.39952 | 7698 ft | 275 kts | 193° |
| 2026-05-08 00:41 | 7.34552 | 125.39529 | 7411 ft | 271 kts | 181° |
| 2026-05-08 00:41 | 7.32692 | 125.39580 | 7137 ft | 265 kts | 167° |
| 2026-05-08 00:41 | 7.30891 | 125.39932 | 6877 ft | 263 kts | 164° |
| 2026-05-08 00:41 | 7.29079 | 125.40336 | 6602 ft | 263 kts | 163° |
| 2026-05-08 00:42 | 7.27296 | 125.40733 | 6332 ft | 262 kts | 164° |
| 2026-05-08 00:42 | 7.25517 | 125.41123 | 6060 ft | 262 kts | 165° |
| 2026-05-08 00:42 | 7.23722 | 125.41508 | 5790 ft | 261 kts | 165° |
| 2026-05-08 00:42 | 7.21937 | 125.41888 | 5572 ft | 259 kts | 165° |
| 2026-05-08 00:43 | 7.20213 | 125.42251 | 5451 ft | 251 kts | 165° |
| 2026-05-08 00:43 | 7.18515 | 125.42608 | 5263 ft | 246 kts | 165° |
| 2026-05-08 00:43 | 7.16847 | 125.42959 | 5073 ft | 241 kts | 165° |
| 2026-05-08 00:43 | 7.15206 | 125.43307 | 4883 ft | 236 kts | 165° |
| 2026-05-08 00:44 | 7.13602 | 125.43646 | 4700 ft | 235 kts | 165° |
| 2026-05-08 00:44 | 7.12006 | 125.43985 | 4520 ft | 235 kts | 166° |
| 2026-05-08 00:44 | 7.10384 | 125.44326 | 4341 ft | 234 kts | 166° |
| 2026-05-08 00:44 | 7.08784 | 125.44664 | 4160 ft | 234 kts | 166° |
| 2026-05-08 00:45 | 7.07209 | 125.45046 | 3971 ft | 231 kts | 155° |
| 2026-05-08 00:45 | 7.06001 | 125.46052 | 3634 ft | 227 kts | 120° |
| 2026-05-08 00:45 | 7.05274 | 125.47462 | 3335 ft | 227 kts | 113° |
| 2026-05-08 00:45 | 7.04617 | 125.48912 | 3015 ft | 229 kts | 113° |
| 2026-05-08 00:46 | 7.03928 | 125.50349 | 2703 ft | 230 kts | 115° |
| 2026-05-08 00:46 | 7.03193 | 125.51792 | 2418 ft | 230 kts | 116° |
| 2026-05-08 00:46 | 7.02638 | 125.53234 | 2188 ft | 214 kts | 95° |
| 2026-05-08 00:46 | 7.02948 | 125.54585 | 2148 ft | 187 kts | 54° |
| 2026-05-08 00:47 | 7.03909 | 125.55418 | 2158 ft | 182 kts | 34° |
| 2026-05-08 00:47 | 7.04947 | 125.56130 | 2011 ft | 177 kts | 37° |
| 2026-05-08 00:47 | 7.05860 | 125.56916 | 1797 ft | 165 kts | 44° |
| 2026-05-08 00:47 | 7.06644 | 125.57708 | 1578 ft | 156 kts | 46° |
| 2026-05-08 00:48 | 7.07373 | 125.58525 | 1382 ft | 155 kts | 49° |
| 2026-05-08 00:48 | 7.08074 | 125.59351 | 1184 ft | 154 kts | 49° |
| 2026-05-08 00:48 | 7.08770 | 125.60171 | 988 ft | 154 kts | 48° |
| 2026-05-08 00:48 | 7.09465 | 125.60982 | 794 ft | 153 kts | 48° |
| 2026-05-08 00:49 | 7.10164 | 125.61797 | 595 ft | 153 kts | 48° |
| 2026-05-08 00:49 | 7.10874 | 125.62612 | 401 ft | 153 kts | 48° |
| 2026-05-08 00:49 | 7.11562 | 125.63430 | 200 ft | 153 kts | 48° |
| 2026-05-08 00:49 | 7.12219 | 125.64188 | 123 ft | 118 kts | 50° |
| 2026-05-08 00:50 | 7.12611 | 125.64647 | 123 ft | 55 kts | 49° |
| 2026-05-08 00:50 | 7.12767 | 125.64826 | 123 ft | 25 kts | 49° |
| 2026-05-08 00:50 | 7.12838 | 125.64910 | 122 ft | 12 kts | 42° |
| 2026-05-08 00:50 | 7.12882 | 125.64912 | 122 ft | 7 kts | 333° |
| 2026-05-08 00:51 | 7.12933 | 125.64874 | 122 ft | 10 kts | 320° |
| 2026-05-08 00:51 | 7.12992 | 125.64825 | 122 ft | 10 kts | 318° |
| 2026-05-08 00:51 | 7.13009 | 125.64771 | 122 ft | 9 kts | 283° |
| 2026-05-08 00:51 | 7.13038 | 125.64727 | 122 ft | 6 kts | 314° |
| 2026-05-08 00:52 | 7.13058 | 125.64708 | 122 ft | 0 kts | 316° |
| 2026-05-08 00:52 | 7.13058 | 125.64707 | 123 ft | 0 kts | 316° |